sensor_id;sensor_type;location;lat;lon;timestamp;P1;durP1;ratioP1;P2;durP2;ratioP2
17927;SDS011;9089;58.396;15.544;2022-09-29T00:01:23;3.40;;;3.10;;
17927;SDS011;9089;58.396;15.544;2022-09-29T00:03:48;4.25;;;2.72;;
17927;SDS011;9089;58.396;15.544;2022-09-29T00:06:14;3.53;;;3.20;;
17927;SDS011;9089;58.396;15.544;2022-09-29T00:08:40;4.00;;;2.92;;
17927;SDS011;9089;58.396;15.544;2022-09-29T00:11:06;3.55;;;2.92;;
17927;SDS011;9089;58.396;15.544;2022-09-29T00:13:33;3.53;;;3.22;;
17927;SDS011;9089;58.396;15.544;2022-09-29T00:15:59;3.45;;;2.60;;
17927;SDS011;9089;58.396;15.544;2022-09-29T00:18:25;5.40;;;2.83;;
17927;SDS011;9089;58.396;15.544;2022-09-29T00:20:55;2.92;;;2.70;;
17927;SDS011;9089;58.396;15.544;2022-09-29T00:23:22;3.28;;;3.00;;
17927;SDS011;9089;58.396;15.544;2022-09-29T00:25:47;5.15;;;2.90;;
17927;SDS011;9089;58.396;15.544;2022-09-29T00:28:13;3.20;;;2.88;;
17927;SDS011;9089;58.396;15.544;2022-09-29T00:30:39;3.13;;;2.80;;
17927;SDS011;9089;58.396;15.544;2022-09-29T00:33:05;3.47;;;3.17;;
17927;SDS011;9089;58.396;15.544;2022-09-29T00:35:30;3.60;;;3.28;;
17927;SDS011;9089;58.396;15.544;2022-09-29T00:37:56;5.57;;;3.30;;
17927;SDS011;9089;58.396;15.544;2022-09-29T00:40:21;4.20;;;3.10;;
17927;SDS011;9089;58.396;15.544;2022-09-29T00:42:47;2.90;;;2.55;;
17927;SDS011;9089;58.396;15.544;2022-09-29T00:45:16;3.15;;;2.85;;
17927;SDS011;9089;58.396;15.544;2022-09-29T00:47:44;3.30;;;3.00;;
17927;SDS011;9089;58.396;15.544;2022-09-29T00:50:12;3.67;;;2.90;;
17927;SDS011;9089;58.396;15.544;2022-09-29T00:52:39;3.15;;;2.85;;
17927;SDS011;9089;58.396;15.544;2022-09-29T00:55:06;3.00;;;2.80;;
17927;SDS011;9089;58.396;15.544;2022-09-29T00:57:33;3.13;;;2.75;;
17927;SDS011;9089;58.396;15.544;2022-09-29T01:00:02;4.45;;;2.90;;
17927;SDS011;9089;58.396;15.544;2022-09-29T01:02:29;3.63;;;2.78;;
17927;SDS011;9089;58.396;15.544;2022-09-29T01:04:56;2.80;;;2.50;;
17927;SDS011;9089;58.396;15.544;2022-09-29T01:07:22;2.95;;;2.58;;
17927;SDS011;9089;58.396;15.544;2022-09-29T01:09:48;3.28;;;2.80;;
17927;SDS011;9089;58.396;15.544;2022-09-29T01:12:15;4.43;;;2.80;;
17927;SDS011;9089;58.396;15.544;2022-09-29T01:14:40;5.38;;;3.00;;
17927;SDS011;9089;58.396;15.544;2022-09-29T01:17:06;6.10;;;3.00;;
17927;SDS011;9089;58.396;15.544;2022-09-29T01:19:34;5.75;;;3.13;;
17927;SDS011;9089;58.396;15.544;2022-09-29T01:22:05;3.30;;;2.90;;
17927;SDS011;9089;58.396;15.544;2022-09-29T01:27:15;5.45;;;3.70;;
17927;SDS011;9089;58.396;15.544;2022-09-29T01:29:54;3.72;;;3.25;;
17927;SDS011;9089;58.396;15.544;2022-09-29T01:32:24;4.18;;;3.45;;
17927;SDS011;9089;58.396;15.544;2022-09-29T01:34:53;3.67;;;3.38;;
17927;SDS011;9089;58.396;15.544;2022-09-29T01:37:25;4.82;;;3.05;;
17927;SDS011;9089;58.396;15.544;2022-09-29T01:40:02;4.78;;;3.85;;
17927;SDS011;9089;58.396;15.544;2022-09-29T01:42:31;3.75;;;3.45;;
17927;SDS011;9089;58.396;15.544;2022-09-29T01:44:58;3.88;;;3.40;;
17927;SDS011;9089;58.396;15.544;2022-09-29T01:47:27;5.85;;;4.10;;
17927;SDS011;9089;58.396;15.544;2022-09-29T01:49:55;5.60;;;3.65;;
17927;SDS011;9089;58.396;15.544;2022-09-29T01:52:22;4.15;;;3.65;;
17927;SDS011;9089;58.396;15.544;2022-09-29T01:54:51;4.53;;;3.63;;
17927;SDS011;9089;58.396;15.544;2022-09-29T01:57:20;3.83;;;3.53;;
17927;SDS011;9089;58.396;15.544;2022-09-29T01:59:48;5.63;;;3.20;;
17927;SDS011;9089;58.396;15.544;2022-09-29T02:02:16;5.03;;;3.75;;
17927;SDS011;9089;58.396;15.544;2022-09-29T02:04:45;5.43;;;3.40;;
17927;SDS011;9089;58.396;15.544;2022-09-29T02:07:12;4.43;;;3.75;;
17927;SDS011;9089;58.396;15.544;2022-09-29T02:09:40;4.30;;;3.90;;
17927;SDS011;9089;58.396;15.544;2022-09-29T02:12:07;3.63;;;3.33;;
17927;SDS011;9089;58.396;15.544;2022-09-29T02:14:35;5.70;;;4.10;;
17927;SDS011;9089;58.396;15.544;2022-09-29T02:17:04;4.00;;;3.42;;
17927;SDS011;9089;58.396;15.544;2022-09-29T02:19:32;4.63;;;3.47;;
17927;SDS011;9089;58.396;15.544;2022-09-29T02:22:01;4.82;;;3.35;;
17927;SDS011;9089;58.396;15.544;2022-09-29T02:24:26;4.80;;;3.47;;
17927;SDS011;9089;58.396;15.544;2022-09-29T02:26:52;5.05;;;3.17;;
17927;SDS011;9089;58.396;15.544;2022-09-29T02:29:17;5.68;;;3.15;;
17927;SDS011;9089;58.396;15.544;2022-09-29T02:31:44;4.68;;;3.63;;
17927;SDS011;9089;58.396;15.544;2022-09-29T02:34:12;4.85;;;3.22;;
17927;SDS011;9089;58.396;15.544;2022-09-29T02:36:39;4.57;;;3.80;;
17927;SDS011;9089;58.396;15.544;2022-09-29T02:39:11;3.55;;;3.22;;
17927;SDS011;9089;58.396;15.544;2022-09-29T02:41:41;3.92;;;3.42;;
17927;SDS011;9089;58.396;15.544;2022-09-29T02:44:19;4.72;;;3.60;;
17927;SDS011;9089;58.396;15.544;2022-09-29T02:46:49;3.83;;;3.25;;
17927;SDS011;9089;58.396;15.544;2022-09-29T02:49:25;3.38;;;3.08;;
17927;SDS011;9089;58.396;15.544;2022-09-29T02:51:53;4.32;;;3.40;;
17927;SDS011;9089;58.396;15.544;2022-09-29T02:54:28;3.70;;;3.17;;
17927;SDS011;9089;58.396;15.544;2022-09-29T02:56:59;4.00;;;2.67;;
17927;SDS011;9089;58.396;15.544;2022-09-29T02:59:29;3.50;;;3.20;;
17927;SDS011;9089;58.396;15.544;2022-09-29T03:01:55;3.38;;;3.13;;
17927;SDS011;9089;58.396;15.544;2022-09-29T03:04:24;4.90;;;3.40;;
17927;SDS011;9089;58.396;15.544;2022-09-29T03:06:51;5.30;;;3.40;;
17927;SDS011;9089;58.396;15.544;2022-09-29T03:09:16;5.05;;;3.30;;
17927;SDS011;9089;58.396;15.544;2022-09-29T03:11:43;5.18;;;3.05;;
17927;SDS011;9089;58.396;15.544;2022-09-29T03:14:09;5.53;;;3.53;;
17927;SDS011;9089;58.396;15.544;2022-09-29T03:16:34;4.68;;;3.33;;
17927;SDS011;9089;58.396;15.544;2022-09-29T03:19:01;4.68;;;3.28;;
17927;SDS011;9089;58.396;15.544;2022-09-29T03:21:26;3.40;;;3.10;;
17927;SDS011;9089;58.396;15.544;2022-09-29T03:23:52;5.75;;;3.60;;
17927;SDS011;9089;58.396;15.544;2022-09-29T03:26:17;4.68;;;3.22;;
17927;SDS011;9089;58.396;15.544;2022-09-29T03:28:45;4.85;;;3.40;;
17927;SDS011;9089;58.396;15.544;2022-09-29T03:31:11;4.60;;;3.47;;
17927;SDS011;9089;58.396;15.544;2022-09-29T03:33:36;4.38;;;3.17;;
17927;SDS011;9089;58.396;15.544;2022-09-29T03:36:02;4.38;;;3.00;;
17927;SDS011;9089;58.396;15.544;2022-09-29T03:38:29;5.97;;;3.67;;
17927;SDS011;9089;58.396;15.544;2022-09-29T03:40:55;5.90;;;3.35;;
17927;SDS011;9089;58.396;15.544;2022-09-29T03:43:20;8.27;;;3.30;;
17927;SDS011;9089;58.396;15.544;2022-09-29T03:45:50;5.13;;;3.40;;
17927;SDS011;9089;58.396;15.544;2022-09-29T03:48:16;4.72;;;3.25;;
17927;SDS011;9089;58.396;15.544;2022-09-29T03:50:43;3.22;;;2.92;;
17927;SDS011;9089;58.396;15.544;2022-09-29T03:53:08;6.45;;;3.42;;
17927;SDS011;9089;58.396;15.544;2022-09-29T03:55:34;4.50;;;3.55;;
17927;SDS011;9089;58.396;15.544;2022-09-29T03:57:59;5.45;;;3.45;;
17927;SDS011;9089;58.396;15.544;2022-09-29T04:00:24;3.42;;;2.88;;
17927;SDS011;9089;58.396;15.544;2022-09-29T04:02:52;5.55;;;2.92;;
17927;SDS011;9089;58.396;15.544;2022-09-29T04:05:18;5.50;;;2.75;;
17927;SDS011;9089;58.396;15.544;2022-09-29T04:07:43;5.13;;;3.40;;
17927;SDS011;9089;58.396;15.544;2022-09-29T04:10:08;3.78;;;3.20;;
17927;SDS011;9089;58.396;15.544;2022-09-29T04:12:34;4.57;;;3.17;;
17927;SDS011;9089;58.396;15.544;2022-09-29T04:14:59;4.13;;;3.05;;
17927;SDS011;9089;58.396;15.544;2022-09-29T04:17:25;4.43;;;3.13;;
17927;SDS011;9089;58.396;15.544;2022-09-29T04:19:52;3.33;;;2.85;;
17927;SDS011;9089;58.396;15.544;2022-09-29T04:22:17;3.05;;;2.80;;
17927;SDS011;9089;58.396;15.544;2022-09-29T04:24:43;4.15;;;2.67;;
17927;SDS011;9089;58.396;15.544;2022-09-29T04:27:08;3.42;;;2.67;;
17927;SDS011;9089;58.396;15.544;2022-09-29T04:29:33;4.53;;;2.63;;
17927;SDS011;9089;58.396;15.544;2022-09-29T04:31:59;4.65;;;2.75;;
17927;SDS011;9089;58.396;15.544;2022-09-29T04:34:25;3.20;;;2.90;;
17927;SDS011;9089;58.396;15.544;2022-09-29T04:36:51;3.55;;;2.75;;
17927;SDS011;9089;58.396;15.544;2022-09-29T04:39:17;5.05;;;2.28;;
17927;SDS011;9089;58.396;15.544;2022-09-29T04:41:42;2.83;;;2.63;;
17927;SDS011;9089;58.396;15.544;2022-09-29T04:44:08;3.72;;;3.03;;
17927;SDS011;9089;58.396;15.544;2022-09-29T04:46:33;3.38;;;2.83;;
17927;SDS011;9089;58.396;15.544;2022-09-29T04:48:59;3.10;;;2.65;;
17927;SDS011;9089;58.396;15.544;2022-09-29T04:51:24;3.70;;;2.50;;
17927;SDS011;9089;58.396;15.544;2022-09-29T04:53:51;4.80;;;2.50;;
17927;SDS011;9089;58.396;15.544;2022-09-29T04:56:17;3.13;;;2.70;;
17927;SDS011;9089;58.396;15.544;2022-09-29T04:58:43;3.75;;;2.75;;
17927;SDS011;9089;58.396;15.544;2022-09-29T05:01:09;2.80;;;2.47;;
17927;SDS011;9089;58.396;15.544;2022-09-29T05:03:36;6.68;;;2.80;;
17927;SDS011;9089;58.396;15.544;2022-09-29T05:06:02;5.40;;;2.67;;
17927;SDS011;9089;58.396;15.544;2022-09-29T05:08:27;3.72;;;2.50;;
17927;SDS011;9089;58.396;15.544;2022-09-29T05:10:54;2.85;;;2.50;;
17927;SDS011;9089;58.396;15.544;2022-09-29T05:13:20;3.13;;;2.80;;
17927;SDS011;9089;58.396;15.544;2022-09-29T05:15:45;5.22;;;3.15;;
17927;SDS011;9089;58.396;15.544;2022-09-29T05:18:10;3.25;;;2.95;;
17927;SDS011;9089;58.396;15.544;2022-09-29T05:20:36;6.95;;;3.08;;
17927;SDS011;9089;58.396;15.544;2022-09-29T05:23:01;5.13;;;2.70;;
17927;SDS011;9089;58.396;15.544;2022-09-29T05:25:27;5.95;;;2.55;;
17927;SDS011;9089;58.396;15.544;2022-09-29T05:27:54;3.50;;;2.90;;
17927;SDS011;9089;58.396;15.544;2022-09-29T05:30:19;3.85;;;2.95;;
17927;SDS011;9089;58.396;15.544;2022-09-29T05:32:45;4.72;;;2.83;;
17927;SDS011;9089;58.396;15.544;2022-09-29T05:35:10;4.15;;;2.90;;
17927;SDS011;9089;58.396;15.544;2022-09-29T05:37:36;2.80;;;2.47;;
17927;SDS011;9089;58.396;15.544;2022-09-29T05:40:01;3.28;;;2.97;;
17927;SDS011;9089;58.396;15.544;2022-09-29T05:42:27;3.30;;;3.00;;
17927;SDS011;9089;58.396;15.544;2022-09-29T05:44:54;4.45;;;3.13;;
17927;SDS011;9089;58.396;15.544;2022-09-29T05:47:19;3.60;;;3.15;;
17927;SDS011;9089;58.396;15.544;2022-09-29T05:49:44;3.50;;;3.20;;
17927;SDS011;9089;58.396;15.544;2022-09-29T05:52:10;3.22;;;2.92;;
17927;SDS011;9089;58.396;15.544;2022-09-29T05:54:35;4.50;;;3.13;;
17927;SDS011;9089;58.396;15.544;2022-09-29T05:57:01;3.75;;;2.88;;
17927;SDS011;9089;58.396;15.544;2022-09-29T05:59:26;3.72;;;3.10;;
17927;SDS011;9089;58.396;15.544;2022-09-29T06:01:53;2.65;;;2.45;;
17927;SDS011;9089;58.396;15.544;2022-09-29T06:04:18;3.80;;;3.10;;
17927;SDS011;9089;58.396;15.544;2022-09-29T06:06:44;4.68;;;3.10;;
17927;SDS011;9089;58.396;15.544;2022-09-29T06:09:10;5.88;;;2.80;;
17927;SDS011;9089;58.396;15.544;2022-09-29T06:11:35;3.30;;;3.00;;
17927;SDS011;9089;58.396;15.544;2022-09-29T06:14:01;2.97;;;2.65;;
17927;SDS011;9089;58.396;15.544;2022-09-29T06:16:27;4.05;;;3.15;;
17927;SDS011;9089;58.396;15.544;2022-09-29T06:18:55;4.15;;;3.05;;
17927;SDS011;9089;58.396;15.544;2022-09-29T06:21:23;4.75;;;3.10;;
17927;SDS011;9089;58.396;15.544;2022-09-29T06:23:48;4.35;;;2.90;;
17927;SDS011;9089;58.396;15.544;2022-09-29T06:26:14;5.43;;;3.20;;
17927;SDS011;9089;58.396;15.544;2022-09-29T06:28:40;3.35;;;2.70;;
17927;SDS011;9089;58.396;15.544;2022-09-29T06:31:07;5.00;;;3.10;;
17927;SDS011;9089;58.396;15.544;2022-09-29T06:33:33;4.32;;;2.85;;
17927;SDS011;9089;58.396;15.544;2022-09-29T06:36:02;3.53;;;3.17;;
17927;SDS011;9089;58.396;15.544;2022-09-29T06:38:47;3.15;;;2.85;;
17927;SDS011;9089;58.396;15.544;2022-09-29T06:41:13;4.35;;;2.90;;
17927;SDS011;9089;58.396;15.544;2022-09-29T06:43:38;4.15;;;2.88;;
17927;SDS011;9089;58.396;15.544;2022-09-29T06:46:04;5.45;;;3.10;;
17927;SDS011;9089;58.396;15.544;2022-09-29T06:48:29;4.43;;;3.25;;
17927;SDS011;9089;58.396;15.544;2022-09-29T06:50:54;3.13;;;2.83;;
17927;SDS011;9089;58.396;15.544;2022-09-29T06:53:22;2.80;;;2.60;;
17927;SDS011;9089;58.396;15.544;2022-09-29T06:55:51;3.72;;;3.10;;
17927;SDS011;9089;58.396;15.544;2022-09-29T06:58:16;3.22;;;2.92;;
17927;SDS011;9089;58.396;15.544;2022-09-29T07:00:42;3.63;;;2.80;;
17927;SDS011;9089;58.396;15.544;2022-09-29T07:03:07;3.88;;;2.97;;
17927;SDS011;9089;58.396;15.544;2022-09-29T07:05:33;7.32;;;2.80;;
17927;SDS011;9089;58.396;15.544;2022-09-29T07:07:59;3.85;;;3.20;;
17927;SDS011;9089;58.396;15.544;2022-09-29T07:10:26;3.95;;;2.78;;
17927;SDS011;9089;58.396;15.544;2022-09-29T07:12:52;3.33;;;2.45;;
17927;SDS011;9089;58.396;15.544;2022-09-29T07:15:19;3.35;;;2.63;;
17927;SDS011;9089;58.396;15.544;2022-09-29T07:17:45;4.70;;;2.65;;
17927;SDS011;9089;58.396;15.544;2022-09-29T07:20:10;2.85;;;2.42;;
17927;SDS011;9089;58.396;15.544;2022-09-29T07:22:35;3.35;;;2.70;;
17927;SDS011;9089;58.396;15.544;2022-09-29T07:25:01;3.42;;;2.78;;
17927;SDS011;9089;58.396;15.544;2022-09-29T07:27:28;4.85;;;2.85;;
17927;SDS011;9089;58.396;15.544;2022-09-29T07:29:53;2.58;;;2.38;;
17927;SDS011;9089;58.396;15.544;2022-09-29T07:32:18;2.50;;;2.30;;
17927;SDS011;9089;58.396;15.544;2022-09-29T07:34:44;3.28;;;2.40;;
17927;SDS011;9089;58.396;15.544;2022-09-29T07:37:09;3.95;;;2.28;;
17927;SDS011;9089;58.396;15.544;2022-09-29T07:39:35;2.50;;;2.28;;
17927;SDS011;9089;58.396;15.544;2022-09-29T07:42:00;2.53;;;2.33;;
17927;SDS011;9089;58.396;15.544;2022-09-29T07:44:28;2.58;;;2.13;;
17927;SDS011;9089;58.396;15.544;2022-09-29T07:46:56;5.80;;;2.10;;
17927;SDS011;9089;58.396;15.544;2022-09-29T07:49:22;7.05;;;2.40;;
17927;SDS011;9089;58.396;15.544;2022-09-29T07:51:47;2.40;;;2.20;;
17927;SDS011;9089;58.396;15.544;2022-09-29T07:54:13;2.85;;;2.30;;
17927;SDS011;9089;58.396;15.544;2022-09-29T07:56:39;2.40;;;2.20;;
17927;SDS011;9089;58.396;15.544;2022-09-29T07:59:04;2.50;;;2.30;;
17927;SDS011;9089;58.396;15.544;2022-09-29T08:01:31;2.33;;;2.13;;
17927;SDS011;9089;58.396;15.544;2022-09-29T08:03:57;2.90;;;2.03;;
17927;SDS011;9089;58.396;15.544;2022-09-29T08:06:23;3.92;;;2.08;;
17927;SDS011;9089;58.396;15.544;2022-09-29T08:08:48;2.42;;;1.85;;
17927;SDS011;9089;58.396;15.544;2022-09-29T08:11:14;1.90;;;1.80;;
17927;SDS011;9089;58.396;15.544;2022-09-29T08:13:40;3.30;;;1.90;;
17927;SDS011;9089;58.396;15.544;2022-09-29T08:16:06;2.00;;;1.83;;
17927;SDS011;9089;58.396;15.544;2022-09-29T08:18:34;2.50;;;1.88;;
17927;SDS011;9089;58.396;15.544;2022-09-29T08:20:59;2.38;;;1.80;;
17927;SDS011;9089;58.396;15.544;2022-09-29T08:23:25;4.05;;;1.90;;
17927;SDS011;9089;58.396;15.544;2022-09-29T08:25:57;3.45;;;1.88;;
17927;SDS011;9089;58.396;15.544;2022-09-29T08:28:22;1.90;;;1.80;;
17927;SDS011;9089;58.396;15.544;2022-09-29T08:30:48;1.85;;;1.75;;
17927;SDS011;9089;58.396;15.544;2022-09-29T08:33:14;1.60;;;1.50;;
17927;SDS011;9089;58.396;15.544;2022-09-29T08:35:41;3.50;;;1.70;;
17927;SDS011;9089;58.396;15.544;2022-09-29T08:38:07;1.70;;;1.60;;
17927;SDS011;9089;58.396;15.544;2022-09-29T08:40:32;2.05;;;1.80;;
17927;SDS011;9089;58.396;15.544;2022-09-29T08:42:59;1.75;;;1.65;;
17927;SDS011;9089;58.396;15.544;2022-09-29T08:45:27;1.83;;;1.70;;
17927;SDS011;9089;58.396;15.544;2022-09-29T08:47:55;1.58;;;1.48;;
17927;SDS011;9089;58.396;15.544;2022-09-29T08:50:26;2.00;;;1.80;;
17927;SDS011;9089;58.396;15.544;2022-09-29T08:52:54;1.98;;;1.73;;
17927;SDS011;9089;58.396;15.544;2022-09-29T08:55:23;2.00;;;1.45;;
17927;SDS011;9089;58.396;15.544;2022-09-29T08:57:51;2.45;;;1.98;;
17927;SDS011;9089;58.396;15.544;2022-09-29T09:00:19;4.07;;;1.60;;
17927;SDS011;9089;58.396;15.544;2022-09-29T09:02:58;2.70;;;1.95;;
17927;SDS011;9089;58.396;15.544;2022-09-29T09:08:14;3.78;;;1.70;;
17927;SDS011;9089;58.396;15.544;2022-09-29T09:10:44;1.77;;;1.67;;
17927;SDS011;9089;58.396;15.544;2022-09-29T09:16:10;2.90;;;1.70;;
17927;SDS011;9089;58.396;15.544;2022-09-29T09:21:23;4.97;;;1.42;;
17927;SDS011;9089;58.396;15.544;2022-09-29T09:23:53;3.38;;;1.52;;
17927;SDS011;9089;58.396;15.544;2022-09-29T09:26:20;3.00;;;1.58;;
17927;SDS011;9089;58.396;15.544;2022-09-29T09:28:51;2.75;;;1.60;;
17927;SDS011;9089;58.396;15.544;2022-09-29T09:31:19;2.78;;;1.33;;
17927;SDS011;9089;58.396;15.544;2022-09-29T09:33:48;3.45;;;1.35;;
17927;SDS011;9089;58.396;15.544;2022-09-29T09:36:15;2.47;;;1.70;;
17927;SDS011;9089;58.396;15.544;2022-09-29T09:38:44;1.63;;;1.52;;
17927;SDS011;9089;58.396;15.544;2022-09-29T09:41:13;1.17;;;1.08;;
17927;SDS011;9089;58.396;15.544;2022-09-29T09:43:40;1.40;;;1.27;;
17927;SDS011;9089;58.396;15.544;2022-09-29T09:46:07;1.52;;;1.35;;
17927;SDS011;9089;58.396;15.544;2022-09-29T09:48:34;3.88;;;1.50;;
17927;SDS011;9089;58.396;15.544;2022-09-29T09:51:03;2.30;;;1.30;;
17927;SDS011;9089;58.396;15.544;2022-09-29T09:53:34;3.05;;;1.48;;
17927;SDS011;9089;58.396;15.544;2022-09-29T09:56:04;2.47;;;1.42;;
17927;SDS011;9089;58.396;15.544;2022-09-29T09:58:39;1.17;;;1.08;;
17927;SDS011;9089;58.396;15.544;2022-09-29T10:01:07;1.23;;;1.13;;
17927;SDS011;9089;58.396;15.544;2022-09-29T10:03:33;1.40;;;1.30;;
17927;SDS011;9089;58.396;15.544;2022-09-29T10:05:59;1.27;;;1.15;;
17927;SDS011;9089;58.396;15.544;2022-09-29T10:08:26;2.17;;;1.50;;
17927;SDS011;9089;58.396;15.544;2022-09-29T10:10:52;2.13;;;1.30;;
17927;SDS011;9089;58.396;15.544;2022-09-29T10:13:17;1.60;;;1.30;;
17927;SDS011;9089;58.396;15.544;2022-09-29T10:15:46;4.60;;;1.27;;
17927;SDS011;9089;58.396;15.544;2022-09-29T10:18:13;1.30;;;1.20;;
17927;SDS011;9089;58.396;15.544;2022-09-29T10:20:40;1.98;;;1.20;;
17927;SDS011;9089;58.396;15.544;2022-09-29T10:23:26;1.58;;;1.10;;
17927;SDS011;9089;58.396;15.544;2022-09-29T10:25:53;1.20;;;1.10;;
17927;SDS011;9089;58.396;15.544;2022-09-29T10:28:18;1.40;;;1.30;;
17927;SDS011;9089;58.396;15.544;2022-09-29T10:30:45;1.65;;;1.00;;
17927;SDS011;9089;58.396;15.544;2022-09-29T10:33:13;1.88;;;1.20;;
17927;SDS011;9089;58.396;15.544;2022-09-29T10:35:39;1.35;;;1.25;;
17927;SDS011;9089;58.396;15.544;2022-09-29T10:38:05;2.25;;;1.45;;
17927;SDS011;9089;58.396;15.544;2022-09-29T10:40:32;1.50;;;1.27;;
17927;SDS011;9089;58.396;15.544;2022-09-29T10:42:57;2.08;;;1.25;;
17927;SDS011;9089;58.396;15.544;2022-09-29T10:45:24;2.40;;;1.08;;
17927;SDS011;9089;58.396;15.544;2022-09-29T10:50:50;1.27;;;1.02;;
17927;SDS011;9089;58.396;15.544;2022-09-29T10:53:18;0.98;;;0.90;;
17927;SDS011;9089;58.396;15.544;2022-09-29T10:55:46;3.83;;;0.93;;
17927;SDS011;9089;58.396;15.544;2022-09-29T10:58:17;1.13;;;1.10;;
17927;SDS011;9089;58.396;15.544;2022-09-29T11:00:44;2.60;;;1.13;;
17927;SDS011;9089;58.396;15.544;2022-09-29T11:03:15;1.40;;;1.02;;
17927;SDS011;9089;58.396;15.544;2022-09-29T11:05:45;1.30;;;1.17;;
17927;SDS011;9089;58.396;15.544;2022-09-29T11:08:15;1.27;;;1.17;;
17927;SDS011;9089;58.396;15.544;2022-09-29T11:10:41;1.08;;;0.98;;
17927;SDS011;9089;58.396;15.544;2022-09-29T11:15:51;3.08;;;1.17;;
17927;SDS011;9089;58.396;15.544;2022-09-29T11:18:17;1.33;;;1.05;;
17927;SDS011;9089;58.396;15.544;2022-09-29T11:20:43;3.13;;;1.20;;
17927;SDS011;9089;58.396;15.544;2022-09-29T11:23:17;2.97;;;0.93;;
17927;SDS011;9089;58.396;15.544;2022-09-29T11:25:45;0.93;;;0.93;;
17927;SDS011;9089;58.396;15.544;2022-09-29T11:30:57;0.93;;;0.90;;
17927;SDS011;9089;58.396;15.544;2022-09-29T11:33:27;1.95;;;1.02;;
17927;SDS011;9089;58.396;15.544;2022-09-29T11:35:56;1.20;;;0.80;;
17927;SDS011;9089;58.396;15.544;2022-09-29T11:38:32;2.20;;;0.85;;
17927;SDS011;9089;58.396;15.544;2022-09-29T11:41:02;3.35;;;1.00;;
17927;SDS011;9089;58.396;15.544;2022-09-29T11:43:34;1.25;;;1.05;;
17927;SDS011;9089;58.396;15.544;2022-09-29T11:46:04;1.15;;;0.88;;
17927;SDS011;9089;58.396;15.544;2022-09-29T11:48:38;1.02;;;0.95;;
17927;SDS011;9089;58.396;15.544;2022-09-29T11:51:08;1.08;;;1.00;;
17927;SDS011;9089;58.396;15.544;2022-09-29T11:53:45;1.63;;;0.98;;
17927;SDS011;9089;58.396;15.544;2022-09-29T11:56:18;0.98;;;0.98;;
17927;SDS011;9089;58.396;15.544;2022-09-29T11:58:54;1.35;;;1.17;;
17927;SDS011;9089;58.396;15.544;2022-09-29T12:01:29;0.93;;;0.88;;
17927;SDS011;9089;58.396;15.544;2022-09-29T12:04:02;0.88;;;0.88;;
17927;SDS011;9089;58.396;15.544;2022-09-29T12:12:00;2.08;;;1.10;;
17927;SDS011;9089;58.396;15.544;2022-09-29T12:14:30;2.10;;;1.10;;
17927;SDS011;9089;58.396;15.544;2022-09-29T12:17:06;1.42;;;1.08;;
17927;SDS011;9089;58.396;15.544;2022-09-29T12:19:35;1.08;;;0.80;;
17927;SDS011;9089;58.396;15.544;2022-09-29T12:22:02;1.00;;;0.90;;
17927;SDS011;9089;58.396;15.544;2022-09-29T12:24:32;1.55;;;0.95;;
17927;SDS011;9089;58.396;15.544;2022-09-29T12:26:59;1.00;;;0.90;;
17927;SDS011;9089;58.396;15.544;2022-09-29T12:29:29;1.55;;;0.80;;
17927;SDS011;9089;58.396;15.544;2022-09-29T12:31:56;1.55;;;0.80;;
17927;SDS011;9089;58.396;15.544;2022-09-29T12:34:31;2.85;;;0.82;;
17927;SDS011;9089;58.396;15.544;2022-09-29T12:36:58;1.10;;;1.00;;
17927;SDS011;9089;58.396;15.544;2022-09-29T12:42:22;2.03;;;1.10;;
17927;SDS011;9089;58.396;15.544;2022-09-29T12:44:52;4.40;;;1.05;;
17927;SDS011;9089;58.396;15.544;2022-09-29T12:47:19;3.10;;;0.90;;
17927;SDS011;9089;58.396;15.544;2022-09-29T12:49:50;1.40;;;1.30;;
17927;SDS011;9089;58.396;15.544;2022-09-29T12:52:19;1.17;;;1.00;;
17927;SDS011;9089;58.396;15.544;2022-09-29T12:54:46;2.50;;;1.00;;
17927;SDS011;9089;58.396;15.544;2022-09-29T12:57:13;1.60;;;1.08;;
17927;SDS011;9089;58.396;15.544;2022-09-29T12:59:42;1.00;;;0.90;;
17927;SDS011;9089;58.396;15.544;2022-09-29T13:02:16;0.90;;;0.80;;
17927;SDS011;9089;58.396;15.544;2022-09-29T13:04:51;2.45;;;0.85;;
17927;SDS011;9089;58.396;15.544;2022-09-29T13:07:44;1.02;;;0.70;;
17927;SDS011;9089;58.396;15.544;2022-09-29T13:10:21;0.80;;;0.80;;
17927;SDS011;9089;58.396;15.544;2022-09-29T13:12:59;1.45;;;1.05;;
17927;SDS011;9089;58.396;15.544;2022-09-29T13:15:31;0.82;;;0.82;;
17927;SDS011;9089;58.396;15.544;2022-09-29T13:18:07;1.67;;;0.82;;
17927;SDS011;9089;58.396;15.544;2022-09-29T13:20:46;1.48;;;0.90;;
17927;SDS011;9089;58.396;15.544;2022-09-29T13:28:44;1.73;;;0.70;;
17927;SDS011;9089;58.396;15.544;2022-09-29T13:31:12;1.13;;;0.65;;
17927;SDS011;9089;58.396;15.544;2022-09-29T13:33:39;0.70;;;0.70;;
17927;SDS011;9089;58.396;15.544;2022-09-29T13:36:05;1.17;;;0.70;;
17927;SDS011;9089;58.396;15.544;2022-09-29T13:38:31;2.15;;;1.10;;
17927;SDS011;9089;58.396;15.544;2022-09-29T13:41:11;1.25;;;0.73;;
17927;SDS011;9089;58.396;15.544;2022-09-29T13:43:37;0.70;;;0.70;;
17927;SDS011;9089;58.396;15.544;2022-09-29T13:48:51;1.17;;;0.90;;
17927;SDS011;9089;58.396;15.544;2022-09-29T13:51:26;1.40;;;0.90;;
17927;SDS011;9089;58.396;15.544;2022-09-29T13:56:46;1.27;;;0.90;;
17927;SDS011;9089;58.396;15.544;2022-09-29T13:59:12;2.13;;;0.70;;
17927;SDS011;9089;58.396;15.544;2022-09-29T14:01:39;0.88;;;0.88;;
17927;SDS011;9089;58.396;15.544;2022-09-29T14:06:50;0.70;;;0.70;;
17927;SDS011;9089;58.396;15.544;2022-09-29T14:09:16;2.40;;;0.88;;
17927;SDS011;9089;58.396;15.544;2022-09-29T14:11:47;1.00;;;0.77;;
17927;SDS011;9089;58.396;15.544;2022-09-29T14:14:13;1.10;;;1.00;;
17927;SDS011;9089;58.396;15.544;2022-09-29T14:16:44;3.80;;;0.80;;
17927;SDS011;9089;58.396;15.544;2022-09-29T14:19:15;0.88;;;0.85;;
17927;SDS011;9089;58.396;15.544;2022-09-29T14:21:51;0.93;;;0.82;;
17927;SDS011;9089;58.396;15.544;2022-09-29T14:27:13;4.15;;;1.85;;
17927;SDS011;9089;58.396;15.544;2022-09-29T14:29:42;0.95;;;0.60;;
17927;SDS011;9089;58.396;15.544;2022-09-29T14:32:09;1.17;;;0.90;;
17927;SDS011;9089;58.396;15.544;2022-09-29T14:34:39;0.90;;;0.90;;
17927;SDS011;9089;58.396;15.544;2022-09-29T14:37:09;0.98;;;0.70;;
17927;SDS011;9089;58.396;15.544;2022-09-29T14:39:38;0.70;;;0.70;;
17927;SDS011;9089;58.396;15.544;2022-09-29T14:42:04;1.50;;;0.70;;
17927;SDS011;9089;58.396;15.544;2022-09-29T14:44:39;2.95;;;0.70;;
17927;SDS011;9089;58.396;15.544;2022-09-29T14:47:28;2.33;;;0.80;;
17927;SDS011;9089;58.396;15.544;2022-09-29T14:50:16;0.88;;;0.80;;
17927;SDS011;9089;58.396;15.544;2022-09-29T14:53:07;0.70;;;0.70;;
17927;SDS011;9089;58.396;15.544;2022-09-29T14:55:38;1.75;;;0.55;;
17927;SDS011;9089;58.396;15.544;2022-09-29T14:58:10;0.50;;;0.50;;
17927;SDS011;9089;58.396;15.544;2022-09-29T15:00:48;1.45;;;0.60;;
17927;SDS011;9089;58.396;15.544;2022-09-29T15:03:17;1.63;;;0.73;;
17927;SDS011;9089;58.396;15.544;2022-09-29T15:05:46;2.65;;;0.80;;
17927;SDS011;9089;58.396;15.544;2022-09-29T15:08:22;0.80;;;0.68;;
17927;SDS011;9089;58.396;15.544;2022-09-29T15:10:50;1.10;;;0.90;;
17927;SDS011;9089;58.396;15.544;2022-09-29T15:13:16;0.85;;;0.85;;
17927;SDS011;9089;58.396;15.544;2022-09-29T15:15:45;1.75;;;0.90;;
17927;SDS011;9089;58.396;15.544;2022-09-29T15:18:18;0.80;;;0.80;;
17927;SDS011;9089;58.396;15.544;2022-09-29T15:20:50;0.85;;;0.85;;
17927;SDS011;9089;58.396;15.544;2022-09-29T15:23:25;1.80;;;0.80;;
17927;SDS011;9089;58.396;15.544;2022-09-29T15:25:53;0.88;;;0.88;;
17927;SDS011;9089;58.396;15.544;2022-09-29T15:28:20;0.77;;;0.77;;
17927;SDS011;9089;58.396;15.544;2022-09-29T15:30:48;2.65;;;1.10;;
17927;SDS011;9089;58.396;15.544;2022-09-29T15:33:17;2.70;;;0.85;;
17927;SDS011;9089;58.396;15.544;2022-09-29T15:35:44;1.55;;;0.90;;
17927;SDS011;9089;58.396;15.544;2022-09-29T15:38:19;1.20;;;0.90;;